Time;durP1;ratioP1;P1;durP2;ratioP2;P2;SDS_P1;SDS_P2;PMS_P1;PMS_P2;Temp;Humidity;BMP_temperature;BMP_pressure;BME280_temperature;BME280_humidity;BME280_pressure;Samples;Min_cycle;Max_cycle;Signal;HPM_P1;HPM_P2
2021/12/18 00:02:04;;;;;;;5.75;1.75;;;10.90;83.10;;;;;;5112936;28;20042;-59
2021/12/18 00:04:31;;;;;;;5.97;2.00;;;10.90;83.00;;;;;;5116113;27;20043;-58
2021/12/18 00:06:59;;;;;;;3.58;1.55;;;10.90;83.20;;;;;;5129740;27;20059;-59
2021/12/18 00:09:29;;;;;;;3.22;1.75;;;10.90;82.90;;;;;;5089073;28;20101;-59
2021/12/18 00:11:58;;;;;;;3.35;2.22;;;11.00;83.10;;;;;;5100543;28;20032;-58
2021/12/18 00:14:26;;;;;;;8.85;2.63;;;11.10;83.60;;;;;;5109631;28;20102;-59
2021/12/18 00:16:53;;;;;;;3.28;2.17;;;11.10;83.90;;;;;;5118222;27;20063;-59
2021/12/18 00:19:25;;;;;;;4.90;1.70;;;11.10;83.70;;;;;;5088354;28;20097;-59
2021/12/18 00:21:54;;;;;;;3.17;1.60;;;11.10;83.60;;;;;;5101447;28;20388;-59
2021/12/18 00:24:21;;;;;;;2.75;1.83;;;11.00;83.40;;;;;;5100622;28;20028;-59
2021/12/18 00:26:49;;;;;;;3.55;2.00;;;11.00;83.40;;;;;;5091536;28;20108;-59
2021/12/18 00:29:17;;;;;;;2.28;1.52;;;11.00;83.30;;;;;;5089387;28;20071;-58
2021/12/18 00:31:45;;;;;;;2.80;1.42;;;11.00;83.30;;;;;;5089645;28;20502;-59
2021/12/18 00:34:13;;;;;;;4.72;2.08;;;10.90;82.70;;;;;;5099786;28;20032;-58
2021/12/18 00:36:40;;;;;;;3.47;1.80;;;10.90;82.90;;;;;;5096721;28;20043;-59
2021/12/18 00:39:08;;;;;;;3.13;1.77;;;10.90;83.10;;;;;;5104755;28;20081;-59
2021/12/18 00:44:13;;;;;;;;;;;10.90;83.10;;;;;;5106360;27;20040;-59
2021/12/18 00:46:43;;;;;;;3.60;1.83;;;10.80;82.90;;;;;;5125740;27;20426;-58
2021/12/18 00:49:18;;;;;;;7.35;2.00;;;10.90;82.90;;;;;;5119726;27;20127;-58
2021/12/18 00:51:46;;;;;;;5.32;1.65;;;10.80;82.80;;;;;;5130850;27;20114;-59
2021/12/18 00:54:14;;;;;;;3.53;1.55;;;10.80;82.70;;;;;;5111770;28;20052;-59
2021/12/18 00:56:41;;;;;;;2.15;1.45;;;10.80;82.70;;;;;;5117433;27;20065;-59
2021/12/18 00:59:09;;;;;;;3.97;1.40;;;10.80;82.70;;;;;;5118187;27;20487;-59
2021/12/18 01:01:40;;;;;;;3.22;1.50;;;10.90;83.10;;;;;;5100487;28;20056;-59
2021/12/18 01:04:07;;;;;;;2.95;1.42;;;10.80;82.40;;;;;;5110837;28;20040;-59
2021/12/18 01:06:35;;;;;;;4.00;1.73;;;10.80;82.30;;;;;;5108725;28;20032;-59
2021/12/18 01:09:04;;;;;;;3.80;1.48;;;10.70;82.30;;;;;;5070896;28;20061;-59
2021/12/18 01:11:40;;;;;;;4.03;1.77;;;10.80;82.20;;;;;;5099889;28;20067;-59
2021/12/18 01:14:24;;;;;;;4.07;1.30;;;10.80;81.20;;;;;;5082780;28;20098;-58
2021/12/18 01:25:09;;;;;;;1.80;1.20;;;10.70;79.40;;;;;;5087199;28;20532;-59
2021/12/18 01:27:37;;;;;;;4.32;1.83;;;10.80;80.10;;;;;;5095216;28;20047;-58
2021/12/18 01:30:06;;;;;;;2.17;1.52;;;10.80;80.10;;;;;;5115402;28;20040;-58
2021/12/18 01:32:34;;;;;;;2.63;1.20;;;10.90;80.20;;;;;;5115819;28;20485;-59
2021/12/18 01:35:03;;;;;;;2.28;1.17;;;10.90;80.10;;;;;;5115666;28;20043;-59
2021/12/18 01:37:31;;;;;;;2.60;1.48;;;10.80;80.10;;;;;;5115444;28;20127;-59
2021/12/18 01:39:59;;;;;;;6.75;1.73;;;10.90;80.60;;;;;;5097203;28;20507;-58
2021/12/18 01:45:26;;;;;;;3.20;1.48;;;10.80;79.40;;;;;;5109581;28;20565;-59
2021/12/18 01:53:25;;;;;;;3.80;1.70;;;10.80;78.60;;;;;;5115260;28;20059;-58
2021/12/18 01:55:53;;;;;;;3.08;1.67;;;10.70;78.50;;;;;;5097098;28;20032;-58
2021/12/18 01:58:24;;;;;;;2.00;1.60;;;10.70;78.60;;;;;;5115215;28;20543;-58
2021/12/18 02:00:56;;;;;;;2.28;1.30;;;10.80;78.90;;;;;;5097829;28;20071;-59
2021/12/18 02:03:24;;;;;;;3.55;1.52;;;10.80;78.60;;;;;;5114942;28;20059;-59
2021/12/18 02:05:53;;;;;;;4.97;1.95;;;10.70;77.90;;;;;;5096767;28;20088;-59
2021/12/18 02:08:25;;;;;;;1.70;1.35;;;10.70;78.00;;;;;;5097040;28;20473;-58
2021/12/18 02:10:59;;;;;;;2.30;1.48;;;10.70;78.20;;;;;;5097121;28;20055;-58
2021/12/18 02:21:32;;;;;;;4.03;1.77;;;10.60;78.70;;;;;;5114854;28;20035;-58
2021/12/18 02:24:00;;;;;;;2.95;1.40;;;10.60;78.20;;;;;;5096856;28;20093;-58
2021/12/18 02:26:27;;;;;;;4.65;1.48;;;10.60;78.10;;;;;;5096306;28;20049;-59
2021/12/18 02:28:58;;;;;;;4.10;1.33;;;10.60;79.40;;;;;;5096683;28;20038;-58
2021/12/18 02:31:26;;;;;;;2.78;1.92;;;10.60;81.60;;;;;;5096652;28;20047;-59
2021/12/18 02:33:54;;;;;;;3.40;1.50;;;10.60;82.80;;;;;;5096728;28;20050;-59
2021/12/18 02:36:24;;;;;;;2.40;1.70;;;10.60;83.40;;;;;;5114369;28;20381;-59
2021/12/18 02:41:42;;;;;;;3.13;1.58;;;10.60;84.00;;;;;;5114334;28;20039;-59
2021/12/18 02:44:11;;;;;;;2.80;1.30;;;10.60;83.80;;;;;;5114177;28;20524;-59
2021/12/18 02:46:40;;;;;;;5.88;1.67;;;10.60;83.20;;;;;;5114204;28;20046;-59
2021/12/18 02:49:15;;;;;;;2.70;1.52;;;10.60;82.90;;;;;;5114386;28;20031;-59
2021/12/18 02:51:43;;;;;;;3.00;1.95;;;10.50;82.90;;;;;;5114460;28;20089;-59
2021/12/18 02:54:11;;;;;;;4.97;2.20;;;10.60;82.90;;;;;;5095319;28;20201;-59
2021/12/18 02:56:38;;;;;;;2.08;1.33;;;10.50;82.20;;;;;;5114101;28;20039;-58
2021/12/18 02:59:09;;;;;;;5.13;2.20;;;10.50;81.40;;;;;;5114065;28;20465;-59
2021/12/18 03:01:39;;;;;;;2.22;1.20;;;10.50;81.20;;;;;;5096383;28;20039;-59
2021/12/18 03:04:23;;;;;;;1.92;1.50;;;10.50;80.90;;;;;;5113984;28;20547;-58
2021/12/18 03:06:52;;;;;;;1.42;1.15;;;10.50;79.50;;;;;;5095871;28;20110;-58
2021/12/18 03:25:44;;;;;;;1.90;1.30;;;10.60;77.20;;;;;;5097927;28;20118;-59
2021/12/18 03:28:13;;;;;;;5.82;2.22;;;10.50;76.40;;;;;;5118030;28;20036;-59
2021/12/18 03:30:41;;;;;;;3.72;1.25;;;10.60;76.70;;;;;;5100152;28;20050;-58
2021/12/18 03:33:09;;;;;;;3.33;2.03;;;10.60;77.00;;;;;;5118107;28;20040;-59
2021/12/18 03:35:36;;;;;;;4.10;1.73;;;10.60;77.30;;;;;;5118038;28;20439;-58
2021/12/18 03:38:04;;;;;;;3.33;1.48;;;10.60;78.10;;;;;;5117864;28;20069;-58
2021/12/18 03:40:32;;;;;;;2.63;1.50;;;10.60;78.70;;;;;;5099710;28;20108;-59
2021/12/18 03:42:59;;;;;;;5.28;1.80;;;10.60;79.20;;;;;;5099550;28;20052;-59
2021/12/18 03:45:27;;;;;;;3.33;1.52;;;10.60;79.70;;;;;;5117585;28;20032;-59
2021/12/18 03:47:55;;;;;;;2.97;1.63;;;10.70;79.70;;;;;;5117789;28;20044;-59
2021/12/18 03:50:22;;;;;;;2.67;1.92;;;10.60;80.00;;;;;;5117542;28;20039;-59
2021/12/18 03:52:50;;;;;;;2.67;1.30;;;10.60;80.50;;;;;;5117619;28;20031;-59
2021/12/18 03:55:18;;;;;;;2.55;1.52;;;10.50;80.80;;;;;;5099693;28;20096;-58
2021/12/18 03:57:45;;;;;;;5.60;1.77;;;10.60;81.30;;;;;;5099367;28;20069;-58
2021/12/18 04:00:16;;;;;;;4.13;1.30;;;10.60;81.40;;;;;;5117659;28;20126;-58
2021/12/18 04:02:44;;;;;;;2.70;1.98;;;10.60;81.60;;;;;;5117337;28;20032;-58
2021/12/18 04:05:12;;;;;;;4.07;1.98;;;10.60;81.80;;;;;;5099341;28;20043;-58
2021/12/18 04:07:41;;;;;;;4.75;1.63;;;10.60;81.80;;;;;;5099154;28;20039;-58
2021/12/18 04:10:15;;;;;;;3.22;1.20;;;10.50;81.40;;;;;;5117293;28;20054;-58
2021/12/18 04:12:43;;;;;;;4.20;2.15;;;10.60;81.30;;;;;;5117222;28;20495;-58
2021/12/18 04:15:11;;;;;;;2.17;1.40;;;10.60;81.40;;;;;;5098932;28;20036;-59
2021/12/18 04:17:38;;;;;;;2.22;1.35;;;10.60;81.20;;;;;;5117081;28;20044;-58
2021/12/18 04:20:08;;;;;;;3.78;1.80;;;10.50;81.10;;;;;;5098976;28;20028;-58
2021/12/18 04:22:35;;;;;;;2.45;1.67;;;10.50;82.60;;;;;;5117109;28;20477;-59
2021/12/18 04:25:04;;;;;;;11.70;2.58;;;10.50;84.10;;;;;;5099075;28;20036;-58
2021/12/18 04:27:31;;;;;;;2.63;1.55;;;10.60;85.00;;;;;;5099018;28;20139;-58
2021/12/18 04:29:59;;;;;;;6.55;1.63;;;10.50;85.50;;;;;;5116926;28;20061;-58
2021/12/18 04:32:27;;;;;;;6.57;2.50;;;10.40;86.40;;;;;;5116875;28;20059;-58
2021/12/18 04:34:54;;;;;;;3.67;1.95;;;10.40;86.10;;;;;;5098907;28;20036;-58
2021/12/18 04:37:23;;;;;;;2.45;1.40;;;10.30;84.20;;;;;;5116492;28;20043;-58
2021/12/18 04:39:52;;;;;;;2.28;1.30;;;10.30;84.40;;;;;;5098703;28;20031;-58
2021/12/18 04:42:20;;;;;;;2.67;1.50;;;10.10;84.60;;;;;;5098820;28;20126;-58
2021/12/18 04:44:48;;;;;;;2.25;1.55;;;10.10;85.30;;;;;;5116670;28;20469;-58
2021/12/18 04:47:16;;;;;;;2.08;1.42;;;9.90;85.80;;;;;;5098613;28;20055;-58
2021/12/18 04:49:43;;;;;;;3.05;1.65;;;9.90;86.80;;;;;;5098394;28;20093;-58
2021/12/18 04:52:11;;;;;;;3.60;1.85;;;9.80;87.10;;;;;;5098335;28;20032;-58
2021/12/18 04:54:38;;;;;;;3.63;1.70;;;9.80;87.60;;;;;;5116536;28;20039;-58
2021/12/18 04:57:06;;;;;;;3.83;1.50;;;9.80;87.80;;;;;;5116263;28;20046;-58
2021/12/18 04:59:33;;;;;;;4.30;1.27;;;9.80;88.10;;;;;;5116242;28;20039;-58
2021/12/18 05:02:02;;;;;;;5.10;1.95;;;9.90;88.00;;;;;;5098512;28;20039;-58
2021/12/18 05:04:29;;;;;;;2.58;1.95;;;10.00;88.00;;;;;;5098223;28;20131;-59
2021/12/18 05:06:57;;;;;;;9.27;2.35;;;9.90;88.90;;;;;;5116169;28;20093;-58
2021/12/18 05:09:24;;;;;;;3.00;1.58;;;9.80;90.60;;;;;;5116172;28;20039;-58
2021/12/18 05:11:52;;;;;;;2.95;1.38;;;9.80;92.00;;;;;;5116043;28;20035;-58
2021/12/18 05:14:21;;;;;;;4.05;1.88;;;9.70;92.20;;;;;;5115938;28;20036;-58
2021/12/18 05:16:49;;;;;;;6.00;1.58;;;9.60;92.40;;;;;;5097973;28;20032;-58
2021/12/18 05:19:16;;;;;;;4.35;1.45;;;9.50;92.40;;;;;;5097657;28;20047;-58
2021/12/18 05:21:44;;;;;;;2.03;1.45;;;9.50;92.10;;;;;;5116085;28;20115;-58
2021/12/18 05:24:11;;;;;;;5.78;1.00;;;9.40;92.10;;;;;;5115714;28;20504;-58
2021/12/18 05:26:39;;;;;;;1.55;1.05;;;9.40;91.80;;;;;;5097468;28;20048;-58
2021/12/18 05:29:06;;;;;;;1.35;0.77;;;9.30;91.70;;;;;;5115681;28;20035;-58
2021/12/18 05:31:34;;;;;;;1.25;0.80;;;9.20;91.80;;;;;;5063667;28;20043;-58
2021/12/18 05:34:04;;;;;;;1.40;0.85;;;9.10;92.70;;;;;;5115625;28;20071;-59
2021/12/18 05:37:15;;;;;;;1.00;0.60;;;9.00;92.90;;;;;;5115576;28;20043;-58
2021/12/18 05:39:29;;;;;;;2.92;1.35;;;9.00;93.40;;;;;;5115630;28;20053;-58
2021/12/18 05:41:57;;;;;;;0.85;0.80;;;9.10;93.30;;;;;;5097250;28;20473;-59
2021/12/18 05:44:26;;;;;;;1.25;0.85;;;9.00;93.90;;;;;;5115323;28;20032;-58
2021/12/18 05:46:54;;;;;;;1.63;1.15;;;9.10;93.80;;;;;;5115431;28;20473;-58
2021/12/18 05:49:22;;;;;;;2.13;1.35;;;9.10;93.90;;;;;;5096574;28;20059;-58
2021/12/18 05:51:51;;;;;;;2.15;1.48;;;9.10;93.80;;;;;;5080566;28;20093;-58
2021/12/18 05:54:18;;;;;;;2.67;1.52;;;9.20;93.70;;;;;;5115187;28;20565;-59
2021/12/18 05:56:46;;;;;;;3.40;1.60;;;9.20;93.70;;;;;;5115298;28;20043;-58
2021/12/18 05:59:16;;;;;;;4.10;1.80;;;9.20;93.70;;;;;;5096666;28;20118;-59
2021/12/18 06:01:44;;;;;;;1.88;1.23;;;9.30;94.00;;;;;;5097027;28;20438;-58
2021/12/18 06:04:11;;;;;;;3.63;1.52;;;9.20;92.80;;;;;;5096620;28;20052;-58
2021/12/18 06:06:39;;;;;;;3.92;1.58;;;9.20;92.70;;;;;;5097083;28;20027;-58
2021/12/18 06:09:07;;;;;;;2.50;1.00;;;9.30;92.50;;;;;;5114823;28;20043;-58
2021/12/18 06:11:37;;;;;;;3.95;1.73;;;9.20;91.40;;;;;;5096880;28;20071;-58
2021/12/18 06:14:05;;;;;;;3.75;1.50;;;9.30;91.30;;;;;;5114719;28;20051;-58
2021/12/18 06:16:32;;;;;;;2.33;1.83;;;9.40;91.30;;;;;;5114779;28;20044;-58
2021/12/18 06:19:00;;;;;;;2.70;1.40;;;9.50;91.20;;;;;;5114721;28;20034;-58
2021/12/18 06:21:28;;;;;;;2.80;1.23;;;9.60;91.50;;;;;;5114625;28;20039;-58
2021/12/18 06:23:56;;;;;;;3.20;1.33;;;9.70;92.00;;;;;;5114573;28;20096;-58
2021/12/18 06:26:27;;;;;;;2.63;1.63;;;9.70;92.10;;;;;;5096458;28;20031;-58
2021/12/18 06:28:55;;;;;;;2.17;1.40;;;9.80;91.80;;;;;;5114746;28;20039;-58
2021/12/18 06:31:29;;;;;;;2.40;1.65;;;9.80;91.60;;;;;;5096593;28;20039;-58
2021/12/18 06:33:56;;;;;;;2.38;1.20;;;9.80;91.50;;;;;;5114702;28;20122;-60
2021/12/18 06:36:25;;;;;;;3.13;1.80;;;9.80;91.30;;;;;;5114379;28;20118;-60
2021/12/18 06:38:52;;;;;;;4.25;1.63;;;9.80;91.90;;;;;;5096124;28;20106;-60
2021/12/18 06:41:20;;;;;;;2.00;1.20;;;9.90;92.30;;;;;;5114322;28;20031;-60
2021/12/18 06:43:47;;;;;;;2.55;1.40;;;9.70;92.00;;;;;;5114285;28;20485;-60
2021/12/18 06:46:15;;;;;;;8.73;2.15;;;9.60;92.10;;;;;;5114065;28;20101;-60
2021/12/18 06:48:42;;;;;;;4.95;1.73;;;9.60;91.90;;;;;;5096211;28;20028;-60
2021/12/18 06:51:10;;;;;;;2.72;1.27;;;9.60;91.90;;;;;;5095366;28;20053;-60
2021/12/18 06:53:37;;;;;;;3.13;1.20;;;9.70;92.20;;;;;;5114155;28;20081;-60
2021/12/18 06:56:05;;;;;;;3.67;1.48;;;9.60;92.30;;;;;;5114255;28;20076;-60
2021/12/18 06:58:32;;;;;;;3.70;1.60;;;9.60;92.50;;;;;;5095226;28;20040;-60
2021/12/18 07:01:00;;;;;;;3.75;1.70;;;9.60;92.60;;;;;;5095072;28;20481;-60
2021/12/18 07:03:28;;;;;;;2.42;1.20;;;9.60;92.60;;;;;;5095732;28;20048;-60
2021/12/18 07:05:55;;;;;;;1.63;1.00;;;9.60;92.40;;;;;;5113807;28;20063;-60
2021/12/18 07:08:23;;;;;;;4.85;1.75;;;9.50;92.60;;;;;;5113992;28;20044;-60
2021/12/18 07:10:50;;;;;;;2.38;1.08;;;9.50;92.70;;;;;;5114183;28;20032;-60
2021/12/18 07:13:18;;;;;;;2.03;0.98;;;9.50;92.90;;;;;;5113977;28;20477;-60
2021/12/18 07:15:46;;;;;;;1.55;1.00;;;9.50;92.50;;;;;;5113735;28;20066;-60
2021/12/18 07:18:13;;;;;;;2.70;1.05;;;9.60;92.10;;;;;;5113773;28;20100;-60
2021/12/18 07:20:41;;;;;;;2.22;1.17;;;9.60;91.80;;;;;;5114094;28;20047;-60
2021/12/18 07:23:08;;;;;;;3.72;1.20;;;9.60;91.20;;;;;;5113884;28;20092;-60
2021/12/18 07:25:36;;;;;;;2.60;1.20;;;9.60;91.30;;;;;;5113999;28;20042;-60
2021/12/18 07:28:03;;;;;;;4.80;2.33;;;9.60;91.20;;;;;;5113836;28;20043;-60
2021/12/18 07:30:31;;;;;;;1.95;1.13;;;9.60;91.00;;;;;;5113826;28;20101;-60
2021/12/18 07:32:59;;;;;;;2.15;1.42;;;9.70;91.10;;;;;;5113887;28;20104;-60
2021/12/18 07:35:26;;;;;;;3.00;1.80;;;9.70;91.10;;;;;;5113632;28;20039;-60
2021/12/18 07:37:54;;;;;;;3.35;1.33;;;9.70;91.30;;;;;;5095383;28;20036;-60
2021/12/18 07:40:22;;;;;;;2.10;1.30;;;9.70;91.30;;;;;;5113909;28;20050;-60
2021/12/18 07:42:49;;;;;;;7.25;2.00;;;9.80;91.60;;;;;;5113963;28;20036;-60
2021/12/18 07:45:17;;;;;;;4.68;2.55;;;9.80;91.20;;;;;;5078908;28;20051;-60
2021/12/18 07:47:44;;;;;;;3.08;2.30;;;9.80;91.50;;;;;;5113587;28;20036;-60
2021/12/18 07:50:18;;;;;;;4.07;2.10;;;9.80;91.40;;;;;;5095662;28;20122;-60
2021/12/18 07:52:48;;;;;;;3.10;1.88;;;9.90;91.50;;;;;;5114066;28;20054;-59
2021/12/18 07:55:17;;;;;;;3.70;1.63;;;9.90;91.50;;;;;;5113573;28;20032;-59
2021/12/18 07:57:45;;;;;;;3.55;2.00;;;10.00;91.30;;;;;;5113623;28;20508;-59
2021/12/18 08:00:14;;;;;;;3.35;1.80;;;10.00;91.20;;;;;;5113494;28;20112;-59
2021/12/18 08:02:42;;;;;;;1.80;1.30;;;10.10;91.40;;;;;;5113022;28;20036;-59
2021/12/18 08:05:10;;;;;;;1.90;1.45;;;10.20;91.40;;;;;;5095430;28;20031;-59
2021/12/18 08:07:37;;;;;;;2.70;1.60;;;10.30;91.50;;;;;;5113537;28;20166;-59
2021/12/18 08:10:05;;;;;;;4.80;2.10;;;10.40;91.50;;;;;;5078344;28;20142;-59
2021/12/18 08:12:33;;;;;;;4.25;2.13;;;10.60;91.40;;;;;;5098493;28;20080;-59
2021/12/18 08:15:01;;;;;;;3.67;2.05;;;10.60;91.20;;;;;;5117240;28;20036;-59
2021/12/18 08:17:29;;;;;;;3.88;2.40;;;10.70;91.10;;;;;;5099698;28;20465;-59
2021/12/18 08:19:56;;;;;;;4.28;2.45;;;11.10;90.90;;;;;;5117162;28;20134;-59
2021/12/18 08:22:24;;;;;;;4.68;2.90;;;11.70;90.10;;;;;;5065578;28;20067;-59
2021/12/18 08:24:52;;;;;;;3.00;1.77;;;12.20;87.80;;;;;;5117174;28;20085;-59
2021/12/18 08:27:19;;;;;;;7.45;3.42;;;12.50;85.50;;;;;;5116938;28;20504;-59
2021/12/18 08:29:47;;;;;;;2.55;2.03;;;12.50;83.70;;;;;;5098871;28;20035;-59
2021/12/18 08:32:14;;;;;;;2.58;1.40;;;12.60;83.40;;;;;;5099052;28;20040;-60
2021/12/18 08:34:42;;;;;;;2.50;1.38;;;12.70;83.30;;;;;;5117038;28;20036;-59
2021/12/18 08:37:10;;;;;;;2.30;1.65;;;12.50;82.30;;;;;;5099033;28;20036;-59
2021/12/18 08:39:37;;;;;;;2.70;1.50;;;12.50;82.50;;;;;;5116656;28;20373;-60
2021/12/18 08:42:06;;;;;;;2.10;1.30;;;12.40;82.70;;;;;;5116980;28;20081;-59
2021/12/18 08:44:34;;;;;;;3.20;1.40;;;12.40;82.70;;;;;;5116674;28;20035;-59
2021/12/18 08:47:03;;;;;;;4.03;1.88;;;12.40;83.00;;;;;;5116652;28;20063;-60
2021/12/18 08:49:30;;;;;;;2.72;2.20;;;12.40;82.80;;;;;;5098553;28;20059;-59
2021/12/18 08:51:58;;;;;;;3.35;2.10;;;12.30;83.70;;;;;;5098612;28;20512;-59
2021/12/18 08:54:26;;;;;;;4.10;2.15;;;12.30;84.30;;;;;;5098542;28;20048;-58
2021/12/18 08:57:06;;;;;;;4.28;2.00;;;12.40;82.80;;;;;;5116428;28;20412;-59
2021/12/18 08:59:34;;;;;;;2.28;1.20;;;12.50;82.00;;;;;;5098115;28;20073;-59
2021/12/18 09:02:01;;;;;;;3.78;2.45;;;12.20;81.00;;;;;;5116491;28;20084;-59
2021/12/18 09:04:29;;;;;;;5.85;2.35;;;12.30;82.10;;;;;;5115989;28;20050;-60
2021/12/18 09:06:57;;;;;;;3.92;2.28;;;12.40;81.80;;;;;;5116220;28;20035;-59
2021/12/18 09:09:24;;;;;;;3.55;1.83;;;12.60;82.00;;;;;;5098413;28;20036;-60
2021/12/18 09:11:52;;;;;;;3.45;1.58;;;12.70;81.50;;;;;;5116192;28;20043;-60
2021/12/18 09:14:19;;;;;;;4.53;2.58;;;12.90;81.80;;;;;;5116068;28;20101;-60
2021/12/18 09:16:47;;;;;;;3.55;1.67;;;12.80;82.20;;;;;;5116245;28;20043;-59
2021/12/18 09:19:15;;;;;;;3.10;1.55;;;12.70;81.90;;;;;;5116081;28;20139;-59
2021/12/18 09:21:42;;;;;;;4.68;2.40;;;12.70;82.10;;;;;;5097763;28;20089;-59
2021/12/18 09:24:10;;;;;;;3.67;1.98;;;12.70;81.90;;;;;;5096716;28;20378;-60
2021/12/18 09:26:38;;;;;;;5.10;2.22;;;12.60;81.60;;;;;;5116006;28;20039;-59
2021/12/18 09:29:06;;;;;;;5.22;1.63;;;12.60;81.20;;;;;;5098129;28;20063;-59
2021/12/18 09:31:34;;;;;;;2.53;1.42;;;12.60;81.10;;;;;;5115997;28;20035;-59
2021/12/18 09:34:02;;;;;;;3.85;1.52;;;12.50;81.10;;;;;;5115547;28;20122;-59
2021/12/18 09:36:30;;;;;;;5.53;3.05;;;12.50;81.90;;;;;;5097280;28;20500;-59
2021/12/18 09:39:00;;;;;;;4.40;2.15;;;12.30;80.40;;;;;;5115509;28;20031;-59
2021/12/18 09:41:28;;;;;;;4.30;2.25;;;12.30;81.20;;;;;;5115645;28;20035;-59
2021/12/18 09:43:55;;;;;;;5.20;2.92;;;12.50;81.40;;;;;;5097252;28;20063;-59
2021/12/18 09:46:23;;;;;;;3.97;2.22;;;12.60;81.20;;;;;;5115271;28;20047;-59
2021/12/18 09:48:51;;;;;;;6.90;3.67;;;12.40;78.30;;;;;;5115288;28;20039;-59
2021/12/18 09:51:24;;;;;;;7.40;2.40;;;12.40;78.80;;;;;;5097438;28;20035;-59
2021/12/18 09:53:56;;;;;;;4.68;2.97;;;12.20;79.40;;;;;;5115245;28;20145;-59
2021/12/18 09:56:25;;;;;;;3.28;1.77;;;12.10;80.90;;;;;;5115460;28;20070;-60
2021/12/18 09:58:53;;;;;;;4.68;2.17;;;12.10;81.80;;;;;;5096900;28;20040;-59
2021/12/18 10:01:21;;;;;;;7.00;3.33;;;12.30;82.30;;;;;;5115298;28;20063;-59
2021/12/18 10:03:53;;;;;;;5.90;3.55;;;12.50;81.80;;;;;;5096601;28;20453;-59
2021/12/18 10:06:42;;;;;;;5.32;2.75;;;12.80;81.30;;;;;;5115029;28;20127;-58
2021/12/18 10:09:37;;;;;;;3.30;1.90;;;12.90;80.70;;;;;;5115355;28;20050;-60
2021/12/18 10:12:32;;;;;;;2.63;1.42;;;12.90;80.00;;;;;;5096921;28;20038;-59
2021/12/18 10:15:12;;;;;;;3.42;1.45;;;12.80;79.90;;;;;;5097170;28;20035;-59
2021/12/18 10:17:42;;;;;;;5.75;2.05;;;12.80;80.80;;;;;;5115192;28;20069;-58
2021/12/18 10:20:11;;;;;;;2.97;1.58;;;12.90;81.40;;;;;;5114562;28;20036;-59
2021/12/18 10:22:49;;;;;;;2.88;1.83;;;12.80;79.60;;;;;;5114805;28;20075;-59
2021/12/18 10:25:29;;;;;;;4.00;1.63;;;12.80;76.90;;;;;;5114937;28;20130;-58
2021/12/18 10:28:14;;;;;;;3.13;1.85;;;12.80;77.70;;;;;;5114810;28;20043;-58
2021/12/18 10:30:46;;;;;;;2.47;1.65;;;12.90;78.20;;;;;;5079804;28;20044;-58
2021/12/18 10:33:15;;;;;;;2.95;1.58;;;12.90;77.30;;;;;;5114447;28;20410;-58
2021/12/18 10:35:54;;;;;;;3.47;1.13;;;12.80;78.40;;;;;;5096329;28;20143;-58
2021/12/18 10:38:55;;;;;;;3.55;1.30;;;12.80;75.40;;;;;;5114385;28;20118;-58
2021/12/18 10:41:28;;;;;;;2.13;1.45;;;12.80;75.10;;;;;;5043135;28;20043;-58
2021/12/18 10:44:07;;;;;;;4.68;2.53;;;13.00;76.50;;;;;;5113523;28;20381;-58
2021/12/18 10:46:37;;;;;;;3.22;1.35;;;13.10;77.80;;;;;;5095694;28;20035;-58
2021/12/18 10:49:08;;;;;;;4.40;1.60;;;12.90;75.60;;;;;;5113770;28;20143;-58
2021/12/18 10:51:37;;;;;;;3.35;1.77;;;12.60;76.90;;;;;;5113602;28;20047;-58
2021/12/18 10:54:08;;;;;;;2.00;1.40;;;12.80;79.10;;;;;;5113379;28;20469;-58
2021/12/18 10:56:39;;;;;;;7.18;2.33;;;13.00;78.10;;;;;;5095082;28;20039;-59
2021/12/18 10:59:25;;;;;;;3.50;1.85;;;13.00;77.30;;;;;;5095511;28;20031;-59
2021/12/18 11:01:57;;;;;;;4.82;2.10;;;12.90;76.40;;;;;;5113569;28;20036;-58
2021/12/18 11:04:38;;;;;;;2.58;1.40;;;12.90;76.50;;;;;;5095415;28;20040;-58
2021/12/18 11:07:17;;;;;;;4.78;2.20;;;12.70;76.30;;;;;;5061736;28;20067;-58
2021/12/18 11:09:59;;;;;;;3.15;1.48;;;12.50;76.10;;;;;;5114490;28;20039;-58
2021/12/18 11:15:13;;;;;;;4.60;2.23;;;12.50;77.30;;;;;;5095942;28;20119;-59
2021/12/18 11:17:41;;;;;;;3.70;2.80;;;12.50;76.90;;;;;;5113299;28;20031;-58
2021/12/18 11:20:10;;;;;;;6.03;3.13;;;12.60;77.60;;;;;;5094937;28;20397;-58
2021/12/18 11:22:38;;;;;;;2.97;2.17;;;12.60;77.80;;;;;;5113252;28;20035;-58
2021/12/18 11:25:09;;;;;;;3.28;1.70;;;12.80;77.70;;;;;;5113566;28;20354;-58
2021/12/18 11:27:37;;;;;;;5.50;2.10;;;12.70;75.70;;;;;;5113402;28;20042;-58
2021/12/18 11:30:13;;;;;;;5.05;1.70;;;12.70;76.40;;;;;;5113709;28;20404;-58
2021/12/18 11:32:44;;;;;;;2.83;1.23;;;12.70;74.20;;;;;;5113398;28;20442;-58
2021/12/18 11:35:20;;;;;;;5.10;1.50;;;12.70;74.50;;;;;;5095575;28;20027;-59
2021/12/18 11:37:51;;;;;;;4.93;2.05;;;12.40;75.50;;;;;;5113006;28;20147;-58
2021/12/18 11:40:25;;;;;;;4.22;2.20;;;12.40;76.50;;;;;;5113179;28;20782;-58
2021/12/18 11:42:53;;;;;;;4.68;2.70;;;12.60;77.60;;;;;;5113244;28;20043;-59
2021/12/18 11:45:34;;;;;;;5.20;2.05;;;12.50;77.10;;;;;;5113368;28;20512;-59
2021/12/18 11:48:04;;;;;;;3.50;2.33;;;12.40;76.20;;;;;;5117132;28;20043;-59
2021/12/18 11:50:38;;;;;;;5.20;2.33;;;12.40;76.60;;;;;;5117619;28;20043;-59
2021/12/18 11:53:15;;;;;;;7.05;2.10;;;12.50;76.90;;;;;;5117094;28;20493;-59
2021/12/18 11:55:48;;;;;;;7.00;2.22;;;12.50;76.40;;;;;;5081588;28;20032;-59
2021/12/18 11:58:19;;;;;;;4.30;1.30;;;12.40;76.10;;;;;;5082235;28;20035;-58
2021/12/18 12:00:51;;;;;;;4.82;1.85;;;12.00;76.60;;;;;;5116981;28;20042;-58
2021/12/18 12:03:38;;;;;;;4.60;1.20;;;11.90;78.10;;;;;;5098727;28;20484;-59
2021/12/18 12:06:33;;;;;;;3.03;1.58;;;12.00;78.00;;;;;;5098929;28;20414;-59
2021/12/18 12:09:32;;;;;;;2.85;1.65;;;12.20;77.60;;;;;;5116954;28;20054;-58
2021/12/18 12:12:01;;;;;;;5.03;1.92;;;12.30;76.20;;;;;;5098505;28;20042;-58
2021/12/18 12:14:31;;;;;;;1.90;1.30;;;12.20;76.20;;;;;;5117057;28;20051;-58
2021/12/18 12:21:46;;;;;;;3.55;2.15;;;12.10;76.20;;;;;;5114302;28;20042;-58
2021/12/18 12:24:17;;;;;;;8.13;2.47;;;11.90;74.00;;;;;;5098799;28;20044;-59
2021/12/18 12:26:45;;;;;;;2.95;1.63;;;12.00;74.50;;;;;;5099273;28;20032;-59
2021/12/18 12:29:16;;;;;;;5.45;1.70;;;11.90;75.20;;;;;;5116462;28;20039;-59
2021/12/18 12:31:56;;;;;;;2.47;1.30;;;11.90;74.90;;;;;;5098730;28;20146;-59
2021/12/18 12:34:26;;;;;;;3.95;2.10;;;11.80;73.90;;;;;;5116616;28;20503;-58
2021/12/18 12:37:00;;;;;;;4.43;1.80;;;11.60;72.90;;;;;;5115842;28;20093;-58
2021/12/18 12:39:51;;;;;;;2.33;1.30;;;11.60;73.00;;;;;;5115804;28;20050;-59
2021/12/18 12:42:19;;;;;;;3.22;1.30;;;11.50;72.50;;;;;;5115863;28;20089;-59
2021/12/18 12:44:58;;;;;;;2.78;1.55;;;11.30;73.20;;;;;;5116378;28;20047;-60
2021/12/18 12:47:27;;;;;;;3.28;1.42;;;11.20;74.10;;;;;;5097180;28;20035;-59
2021/12/18 12:49:59;;;;;;;3.33;1.25;;;11.20;74.80;;;;;;5108337;28;20043;-59
2021/12/18 12:52:30;;;;;;;3.00;1.50;;;11.20;74.00;;;;;;5097985;28;20527;-59
2021/12/18 12:55:15;;;;;;;2.78;1.92;;;11.00;73.10;;;;;;5115185;28;20043;-60
2021/12/18 12:57:45;;;;;;;2.85;1.50;;;11.00;72.50;;;;;;5080348;28;20043;-59
2021/12/18 13:00:15;;;;;;;3.53;1.88;;;11.10;73.50;;;;;;5114660;28;20035;-60
2021/12/18 13:02:51;;;;;;;3.35;2.13;;;11.10;74.20;;;;;;5098001;28;20470;-59
2021/12/18 13:05:20;;;;;;;;;;;11.10;74.20;;;;;;5115102;28;20039;-59
2021/12/18 13:08:00;;;;;;;2.28;1.35;;;11.20;73.70;;;;;;5115104;28;19927;-59
2021/12/18 13:10:35;;;;;;;3.97;1.90;;;11.20;73.40;;;;;;5114686;28;20514;-59
2021/12/18 13:13:12;;;;;;;2.90;1.63;;;11.10;74.10;;;;;;5097647;28;20109;-59
2021/12/18 13:16:00;;;;;;;4.97;1.92;;;11.30;77.80;;;;;;5096903;28;20063;-58
2021/12/18 13:18:35;;;;;;;3.47;2.00;;;11.30;75.20;;;;;;5114819;28;20047;-59
2021/12/18 13:21:24;;;;;;;3.42;2.00;;;11.30;74.90;;;;;;5115572;28;20035;-59
2021/12/18 13:23:59;;;;;;;5.80;2.10;;;11.20;74.40;;;;;;5115938;28;20047;-58
2021/12/18 13:26:37;;;;;;;3.10;2.20;;;11.20;75.90;;;;;;5098312;28;20043;-59
2021/12/18 13:29:08;;;;;;;4.35;1.50;;;11.20;75.00;;;;;;5115920;28;20032;-58
2021/12/18 13:31:43;;;;;;;3.40;1.75;;;11.20;79.00;;;;;;5115869;28;20469;-59
2021/12/18 13:34:16;;;;;;;4.20;2.80;;;11.20;77.40;;;;;;5115657;28;20042;-59
2021/12/18 13:36:46;;;;;;;4.85;2.90;;;11.20;77.20;;;;;;5115295;28;20368;-59
2021/12/18 13:39:35;;;;;;;5.28;2.38;;;11.20;77.30;;;;;;5115162;28;20485;-59
2021/12/18 13:42:10;;;;;;;4.95;2.83;;;11.30;78.90;;;;;;5114877;28;20122;-59
2021/12/18 13:44:48;;;;;;;4.88;2.80;;;11.20;76.50;;;;;;5097358;28;20051;-59
2021/12/18 13:47:35;;;;;;;5.93;3.70;;;11.10;75.90;;;;;;5115433;28;20092;-59
2021/12/18 13:50:18;;;;;;;17.95;11.90;;;11.00;74.80;;;;;;5114957;28;20063;-59
2021/12/18 13:52:51;;;;;;;9.90;5.85;;;11.10;81.60;;;;;;5115159;28;20063;-59
2021/12/18 13:55:30;;;;;;;6.22;4.70;;;11.30;76.90;;;;;;5115054;28;20036;-59
2021/12/18 13:58:07;;;;;;;2.92;2.33;;;11.30;76.30;;;;;;5115263;28;20040;-59
2021/12/18 14:01:02;;;;;;;5.13;2.63;;;11.20;75.30;;;;;;5114927;28;20545;-59
2021/12/18 14:03:34;;;;;;;6.90;2.55;;;11.00;74.70;;;;;;5097068;28;20048;-59